Terminal Aerodrome Forecast
Issued by NWS Detroit/Pontiac, MI

Home | Current Version | Previous Version | Text Only | Print | Product List | Glossary On
Versions: 1 2 3 4 5 6 7 8 9 10 11 12 13
362
FTUS43 KDTX 201122
TAFFNT
TAF
KFNT 201122Z 2012/2112 23005KT P6SM SCT300
     FM201400 18010KT P6SM SCT250
     FM210100 15005KT P6SM SCT250=

USA.gov is the U.S. government's official web portal to all federal, state and local government web resources and services.